Decoded Metar for LFPO (PARIS ORLY in FRANCE) (IATA:ORY) | Meteo·Mobile Aviation Weather
aviador You're here:

LFPO Decoded Metar

PARIS ORLY in FRANCE
Report Time2018-09-21 04:30:00
UTC Time2018-09-21 05:02:50
Flight Rules ifr IFR
Wind210° at 12 kt
W.Decomp.*RWY 20: 11.8 kt HW 2.3 kt RCW
RWY 24: 10.5 kt HW 5.8 kt LCW
RWY 26: 7.9 kt HW 9.1 kt LCW
W.Rank210° ranks 6
Current wind is above 210° avg. (7.9)
Visibility9999 m
Phenomena:Rain
Clouds:N/A
Expected CloudBase > 1,600 ft AGL from Temp-Dew spread
Ceiling900 ft
Temp18°C (ISA +4)
Dew Point14°C (78% RH)
AAT15.0°C
QNH1008 hPa
Density Alt1,125 ft
Elevation315 ft
Report Wrong Elevation
Raw Report
METAR LFPO 210430Z 21012KT CAVOK 18/14 Q1008 TEMPO 20020G30KT 2500
RA BKN009=

Extra information for LFPO:More info

Metar Taf Metar & Taf Last 4 Metars F.Rules Stats Wind Profile Meteogram Temp Stats Airport Information Weather charts Add Link Nearby VenuesMetar ALERT Operation Metar Decoded Social comments